createdAt,value
2016-12-30T00:00:06.027Z,-0.57
2016-12-30T00:00:47.599Z,-0.57
2016-12-30T00:01:29.263Z,-0.54
2016-12-30T00:03:18.518Z,-0.65
2016-12-30T00:04:00.234Z,-0.64
2016-12-30T00:04:41.855Z,-0.67
2016-12-30T00:05:23.535Z,-0.62
2016-12-30T00:06:05.076Z,-0.64
2016-12-30T00:06:46.793Z,-0.55
2016-12-30T00:07:28.437Z,-0.58
2016-12-30T00:08:10.199Z,-0.67
2016-12-30T00:08:51.979Z,-0.64
2016-12-30T00:09:33.704Z,-0.6
2016-12-30T00:10:15.402Z,-0.64
2016-12-30T00:10:57.038Z,-0.58
2016-12-30T00:11:38.858Z,-0.58
2016-12-30T00:12:20.653Z,-0.61
2016-12-30T00:13:02.397Z,-0.58
2016-12-30T00:13:44.158Z,-0.64
2016-12-30T00:14:25.970Z,-0.57
2016-12-30T00:15:07.783Z,-0.64
2016-12-30T00:15:49.532Z,-0.64
2016-12-30T00:16:31.205Z,-0.57
2016-12-30T00:17:12.919Z,-0.58
2016-12-30T00:17:54.713Z,-0.54
2016-12-30T00:18:36.487Z,-0.51
2016-12-30T00:19:18.280Z,-0.51
2016-12-30T00:20:00.136Z,-0.47
2016-12-30T00:20:41.837Z,-0.52
2016-12-30T00:21:23.611Z,-0.52
2016-12-30T00:22:05.389Z,-0.51
2016-12-30T00:22:47.142Z,-0.49
2016-12-30T00:23:28.893Z,-0.44
2016-12-30T00:24:10.479Z,-0.39
2016-12-30T00:24:52.224Z,-0.4
2016-12-30T00:25:33.809Z,-0.42
2016-12-30T00:26:15.608Z,-0.43
2016-12-30T00:26:57.362Z,-0.44
2016-12-30T00:28:46.793Z,-0.47
2016-12-30T00:29:28.567Z,-0.47
2016-12-30T00:30:10.355Z,-0.46
2016-12-30T00:31:59.690Z,-0.4
2016-12-30T00:32:41.426Z,-0.42
2016-12-30T00:33:22.946Z,-0.39
2016-12-30T00:34:04.646Z,-0.42
2016-12-30T00:36:04.665Z,-0.49
2016-12-30T00:36:46.334Z,-0.47
2016-12-30T00:37:28.028Z,-0.47
2016-12-30T00:38:09.822Z,-0.42
2016-12-30T00:38:51.636Z,-0.42
2016-12-30T00:39:33.359Z,-0.34
2016-12-30T00:40:15.106Z,-0.34
2016-12-30T00:40:56.765Z,-0.28
2016-12-30T00:42:35.834Z,-0.33
2016-12-30T00:43:17.602Z,-0.29
2016-12-30T00:43:59.346Z,-0.28
2016-12-30T00:44:41.173Z,-0.31
2016-12-30T00:45:22.911Z,-0.31
2016-12-30T00:46:04.691Z,-0.28
2016-12-30T00:46:46.442Z,-0.36
2016-12-30T00:47:27.998Z,-0.31
2016-12-30T00:48:09.830Z,-0.25
2016-12-30T00:48:51.589Z,-0.21
2016-12-30T00:50:51.735Z,-0.28
2016-12-30T00:51:33.561Z,-0.33
2016-12-30T00:52:15.225Z,-0.21
2016-12-30T00:52:56.786Z,-0.34
2016-12-30T00:53:38.397Z,-0.26
2016-12-30T00:54:20.114Z,-0.29
2016-12-30T00:55:01.838Z,-0.28
2016-12-30T00:55:43.549Z,-0.28
2016-12-30T00:56:25.204Z,-0.21
2016-12-30T00:57:06.839Z,-0.29
2016-12-30T00:59:06.829Z,-0.25
2016-12-30T01:01:06.824Z,-0.28
2016-12-30T01:01:48.436Z,-0.25
2016-12-30T01:02:30.146Z,-0.25
2016-12-30T01:03:11.789Z,-0.23
2016-12-30T01:03:53.299Z,-0.33
2016-12-30T01:04:34.764Z,-0.26
2016-12-30T01:05:16.292Z,-0.22
2016-12-30T01:05:57.984Z,-0.28
2016-12-30T01:06:39.476Z,-0.23
2016-12-30T01:07:21.192Z,-0.25
2016-12-30T01:08:02.850Z,-0.22
2016-12-30T01:08:44.439Z,-0.19
2016-12-30T01:10:39.356Z,-0.16
2016-12-30T01:11:21.035Z,-0.11
2016-12-30T01:12:02.779Z,-0.14
2016-12-30T01:12:44.551Z,-0.18
2016-12-30T01:13:26.295Z,-0.15
2016-12-30T01:14:08.046Z,-0.19
2016-12-30T01:14:49.826Z,-0.25
2016-12-30T01:15:31.613Z,-0.23
2016-12-30T01:16:13.411Z,-0.11
2016-12-30T01:16:55.230Z,-0.15
2016-12-30T01:17:36.952Z,-0.14
2016-12-30T01:18:18.646Z,-0.08
2016-12-30T01:19:00.420Z,-0.14
2016-12-30T01:19:42.213Z,-0.14
2016-12-30T01:20:23.964Z,-0.15
2016-12-30T01:21:05.712Z,-0.15
2016-12-30T01:21:47.411Z,-0.14
2016-12-30T01:22:29.103Z,-0.1
2016-12-30T01:23:10.817Z,-0.14
2016-12-30T01:23:52.668Z,-0.25
2016-12-30T01:24:34.421Z,-0.19
2016-12-30T01:25:16.188Z,-0.16
2016-12-30T01:25:57.887Z,-0.28
2016-12-30T01:26:39.630Z,-0.22
2016-12-30T01:27:21.404Z,-0.31
2016-12-30T01:28:03.026Z,-0.21
2016-12-30T01:28:44.662Z,-0.21
2016-12-30T01:29:26.277Z,-0.34
2016-12-30T01:30:07.903Z,-0.21
2016-12-30T01:30:49.493Z,-0.33
2016-12-30T01:32:49.656Z,-0.21
2016-12-30T01:33:31.357Z,-0.25
2016-12-30T01:34:13.027Z,-0.16
2016-12-30T01:34:54.660Z,-0.1
2016-12-30T01:35:36.245Z,-0.21
2016-12-30T01:36:17.897Z,-0.21
2016-12-30T01:36:59.431Z,-0.28
2016-12-30T01:37:41.069Z,-0.29
2016-12-30T01:39:20.107Z,-0.22
2016-12-30T01:40:01.718Z,-0.31
2016-12-30T01:40:43.320Z,-0.31
2016-12-30T01:41:25.110Z,-0.25
2016-12-30T01:42:06.757Z,-0.28
2016-12-30T01:42:48.407Z,-0.21
2016-12-30T01:43:29.806Z,-0.21
2016-12-30T01:44:11.436Z,-0.31
2016-12-30T01:44:53.225Z,-0.23
2016-12-30T01:45:35.002Z,-0.25
2016-12-30T01:46:16.789Z,-0.16
2016-12-30T01:48:06.101Z,-0.1
2016-12-30T01:48:47.796Z,-0.18
2016-12-30T01:49:29.297Z,-0.18
2016-12-30T01:50:11.090Z,-0.18
2016-12-30T01:52:11.171Z,-0.19
2016-12-30T01:52:52.710Z,-0.22
2016-12-30T01:53:34.435Z,-0.18
2016-12-30T01:54:16.173Z,-0.21
2016-12-30T01:56:16.252Z,-0.34
2016-12-30T01:56:57.919Z,-0.39
2016-12-30T01:59:13.252Z,-0.36
2016-12-30T01:59:54.883Z,-0.4
2016-12-30T02:00:35.405Z,-0.39
2016-12-30T02:01:15.929Z,-0.39
2016-12-30T02:01:56.428Z,-0.36
2016-12-30T02:02:36.925Z,-0.36
2016-12-30T02:03:17.405Z,-0.39
2016-12-30T02:03:57.926Z,-0.34
2016-12-30T02:04:38.422Z,-0.39
2016-12-30T02:05:18.919Z,-0.34
2016-12-30T02:05:59.438Z,-0.4
2016-12-30T02:06:39.953Z,-0.37
2016-12-30T02:07:20.478Z,-0.42
2016-12-30T02:08:00.997Z,-0.36
2016-12-30T02:08:41.508Z,-0.4
2016-12-30T02:09:22.056Z,-0.42
2016-12-30T02:10:02.549Z,-0.34
2016-12-30T02:10:43.027Z,-0.39
2016-12-30T02:11:23.553Z,-0.37
2016-12-30T02:12:04.065Z,-0.4
2016-12-30T02:12:44.593Z,-0.31
2016-12-30T02:13:25.116Z,-0.4
2016-12-30T02:14:05.665Z,-0.33
2016-12-30T02:14:46.169Z,-0.36
2016-12-30T02:15:26.701Z,-0.44
2016-12-30T02:16:07.207Z,-0.33
2016-12-30T02:16:47.702Z,-0.34
2016-12-30T02:17:28.197Z,-0.39
2016-12-30T02:18:08.696Z,-0.39
2016-12-30T02:18:49.199Z,-0.34
2016-12-30T02:19:29.714Z,-0.29
2016-12-30T02:20:10.201Z,-0.34
2016-12-30T02:20:50.704Z,-0.42
2016-12-30T02:21:31.256Z,-0.39
2016-12-30T02:22:11.760Z,-0.37
2016-12-30T02:22:52.254Z,-0.33
2016-12-30T02:23:32.752Z,-0.37
2016-12-30T02:24:13.274Z,-0.36
2016-12-30T02:24:53.771Z,-0.36
2016-12-30T02:25:34.284Z,-0.4
2016-12-30T02:26:14.805Z,-0.42
2016-12-30T02:26:55.303Z,-0.43
2016-12-30T02:27:35.815Z,-0.51
2016-12-30T02:28:16.332Z,-0.51
2016-12-30T02:28:56.805Z,-0.47
2016-12-30T02:29:37.321Z,-0.49
2016-12-30T02:30:17.852Z,-0.46
2016-12-30T02:30:58.358Z,-0.51
2016-12-30T02:31:38.883Z,-0.58
2016-12-30T02:32:19.413Z,-0.58
2016-12-30T02:32:59.942Z,-0.55
2016-12-30T02:33:40.470Z,-0.52
2016-12-30T02:34:20.977Z,-0.6
2016-12-30T02:35:01.480Z,-0.57
2016-12-30T02:35:42.015Z,-0.58
2016-12-30T02:36:22.541Z,-0.52
2016-12-30T02:37:03.066Z,-0.55
2016-12-30T02:37:43.595Z,-0.58
2016-12-30T02:38:24.123Z,-0.52
2016-12-30T02:39:04.650Z,-0.58
2016-12-30T02:39:45.155Z,-0.64
2016-12-30T02:40:25.682Z,-0.62
2016-12-30T02:41:06.201Z,-0.57
2016-12-30T02:41:46.720Z,-0.57
2016-12-30T02:42:27.222Z,-0.58
2016-12-30T02:43:07.757Z,-0.57
2016-12-30T02:43:48.272Z,-0.52
2016-12-30T02:44:28.811Z,-0.62
2016-12-30T02:45:09.356Z,-0.62
2016-12-30T02:45:49.924Z,-0.55
2016-12-30T02:46:30.460Z,-0.65
2016-12-30T02:47:10.987Z,-0.62
2016-12-30T02:47:51.528Z,-0.62
2016-12-30T02:48:32.055Z,-0.61
2016-12-30T02:49:12.551Z,-0.61
2016-12-30T02:49:53.051Z,-0.61
2016-12-30T02:50:33.552Z,-0.65
2016-12-30T02:51:14.051Z,-0.65
2016-12-30T02:51:54.548Z,-0.64
2016-12-30T02:52:35.030Z,-0.65
2016-12-30T02:53:15.552Z,-0.64
2016-12-30T02:53:56.077Z,-0.7
2016-12-30T02:54:36.591Z,-0.69
2016-12-30T02:55:17.120Z,-0.72
2016-12-30T02:55:57.652Z,-0.65
2016-12-30T02:56:38.178Z,-0.67
2016-12-30T02:57:18.709Z,-0.65
2016-12-30T02:57:59.226Z,-0.67
2016-12-30T02:58:39.752Z,-0.65
2016-12-30T02:59:20.276Z,-0.73
2016-12-30T03:00:00.838Z,-0.78
2016-12-30T03:00:41.378Z,-0.72
2016-12-30T03:01:21.905Z,-0.76
2016-12-30T03:02:02.426Z,-0.78
2016-12-30T03:02:42.973Z,-0.78
2016-12-30T03:03:23.481Z,-0.73
2016-12-30T03:04:03.958Z,-0.67
2016-12-30T03:04:44.438Z,-0.78
2016-12-30T03:05:24.960Z,-0.76
2016-12-30T03:06:05.488Z,-0.79
2016-12-30T03:06:46.008Z,-0.79
2016-12-30T03:07:26.525Z,-0.75
2016-12-30T03:08:07.036Z,-0.75
2016-12-30T03:08:47.564Z,-0.82
2016-12-30T03:09:28.090Z,-0.83
2016-12-30T03:10:08.618Z,-0.76
2016-12-30T03:10:49.156Z,-0.73
2016-12-30T03:11:29.689Z,-0.8
2016-12-30T03:12:10.213Z,-0.7
2016-12-30T03:12:50.742Z,-0.76
2016-12-30T03:13:31.272Z,-0.8
2016-12-30T03:14:11.762Z,-0.79
2016-12-30T03:14:52.284Z,-0.79
2016-12-30T03:15:32.793Z,-0.79
2016-12-30T03:16:13.325Z,-0.79
2016-12-30T03:16:53.838Z,-0.76
2016-12-30T03:17:34.345Z,-0.79
2016-12-30T03:18:14.853Z,-0.89
2016-12-30T03:18:55.376Z,-0.83
2016-12-30T03:19:35.904Z,-0.82
2016-12-30T03:20:16.435Z,-0.82
2016-12-30T03:20:56.951Z,-0.85
2016-12-30T03:21:37.462Z,-0.91
2016-12-30T03:22:17.983Z,-0.79
2016-12-30T03:22:58.491Z,-0.89
2016-12-30T03:23:39.022Z,-0.89
2016-12-30T03:24:19.518Z,-0.95
2016-12-30T03:25:00.026Z,-0.94
2016-12-30T03:25:40.544Z,-0.91
2016-12-30T03:26:21.089Z,-0.91
2016-12-30T03:27:01.623Z,-0.83
2016-12-30T03:27:42.232Z,-0.83
2016-12-30T03:28:22.688Z,-1.02
2016-12-30T03:29:03.205Z,-0.94
2016-12-30T03:29:43.721Z,-0.85
2016-12-30T03:30:24.261Z,-0.91
2016-12-30T03:31:04.780Z,-0.99
2016-12-30T03:31:45.323Z,-0.97
2016-12-30T03:32:25.818Z,-0.89
2016-12-30T03:33:06.339Z,-0.89
2016-12-30T03:33:46.875Z,-1.02
2016-12-30T03:34:27.372Z,-0.97
2016-12-30T03:35:07.883Z,-0.92
2016-12-30T03:35:48.409Z,-1.02
2016-12-30T03:36:28.937Z,-0.99
2016-12-30T03:37:09.439Z,-0.99
2016-12-30T03:37:49.956Z,-0.99
2016-12-30T03:38:30.487Z,-0.85
2016-12-30T03:39:10.981Z,-0.97
2016-12-30T03:39:51.526Z,-0.97
2016-12-30T03:40:32.026Z,-0.94
2016-12-30T03:41:12.541Z,-0.94
2016-12-30T03:41:53.066Z,-0.97
2016-12-30T03:42:33.585Z,-0.99
2016-12-30T03:43:14.180Z,-0.97
2016-12-30T03:43:54.676Z,-0.97
2016-12-30T03:44:35.198Z,-0.99
2016-12-30T03:45:15.725Z,-0.99
2016-12-30T03:45:56.238Z,-0.91
2016-12-30T03:46:36.737Z,-0.99
2016-12-30T03:47:17.246Z,-1.02
2016-12-30T03:47:57.770Z,-0.98
2016-12-30T03:48:38.283Z,-1.13
2016-12-30T03:49:18.765Z,-1.1
2016-12-30T03:49:59.282Z,-1.1
2016-12-30T03:50:39.787Z,-1.04
2016-12-30T03:51:20.287Z,-1.16
2016-12-30T03:52:00.813Z,-1.13
2016-12-30T03:52:41.340Z,-1.15
2016-12-30T03:53:21.868Z,-1.1
2016-12-30T03:54:02.383Z,-1.07
2016-12-30T03:54:42.881Z,-1.1
2016-12-30T03:55:23.421Z,-1.1
2016-12-30T03:56:03.938Z,-1.15
2016-12-30T03:56:44.463Z,-1.1
2016-12-30T03:57:24.974Z,-1.1
2016-12-30T03:58:05.519Z,-1.16
2016-12-30T03:58:46.037Z,-1.1
2016-12-30T03:59:26.568Z,-1.1
2016-12-30T04:00:07.067Z,-1.1
2016-12-30T04:00:47.570Z,-1.09
2016-12-30T04:01:28.077Z,-1.09
2016-12-30T04:02:08.589Z,-1.16
2016-12-30T04:02:49.070Z,-1.07
2016-12-30T04:03:29.583Z,-1.04
2016-12-30T04:04:10.108Z,-1.1
2016-12-30T04:04:50.619Z,-1.1
2016-12-30T04:05:31.133Z,-1.09
2016-12-30T04:06:11.641Z,-1.13
2016-12-30T04:06:52.146Z,-1.09
2016-12-30T04:07:32.658Z,-1.1
2016-12-30T04:08:13.176Z,-1.13
2016-12-30T04:08:53.687Z,-1.07
2016-12-30T04:09:34.232Z,-1.09
2016-12-30T04:10:14.752Z,-1.05
2016-12-30T04:10:55.278Z,-1.07
2016-12-30T04:11:35.791Z,-1.09
2016-12-30T04:12:16.293Z,-1.1
2016-12-30T04:12:56.807Z,-1.13
2016-12-30T04:13:37.359Z,-1.15
2016-12-30T04:14:17.872Z,-1.22
2016-12-30T04:14:58.402Z,-1.09
2016-12-30T04:15:38.975Z,-1.16
2016-12-30T04:16:19.446Z,-1.22
2016-12-30T04:16:59.969Z,-1.15
2016-12-30T04:17:40.510Z,-1.2
2016-12-30T04:18:21.041Z,-1.15
2016-12-30T04:19:01.557Z,-1.27
2016-12-30T04:19:42.062Z,-1.1
2016-12-30T04:20:22.578Z,-1.22
2016-12-30T04:21:03.111Z,-1.15
2016-12-30T04:21:43.646Z,-1.1
2016-12-30T04:22:24.148Z,-1.15
2016-12-30T04:23:04.661Z,-1.1
2016-12-30T04:23:45.184Z,-1.22
2016-12-30T04:24:25.679Z,-1.13
2016-12-30T04:25:06.200Z,-1.15
2016-12-30T04:25:46.724Z,-1.17
2016-12-30T04:26:27.253Z,-1.23
2016-12-30T04:27:07.780Z,-1.13
2016-12-30T04:27:48.317Z,-1.15
2016-12-30T04:28:28.834Z,-1.2
2016-12-30T04:29:09.367Z,-1.17
2016-12-30T04:29:49.875Z,-1.2
2016-12-30T04:30:30.395Z,-1.13
2016-12-30T04:31:10.918Z,-1.13
2016-12-30T04:31:51.423Z,-1.27
2016-12-30T04:32:31.947Z,-1.25
2016-12-30T04:33:12.436Z,-1.2
2016-12-30T04:33:52.950Z,-1.34
2016-12-30T04:34:33.482Z,-1.34
2016-12-30T04:35:13.965Z,-1.34
2016-12-30T04:35:54.475Z,-1.33
2016-12-30T04:36:34.981Z,-1.4
2016-12-30T04:37:15.493Z,-1.3
2016-12-30T04:37:56.019Z,-1.37
2016-12-30T04:38:36.541Z,-1.34
2016-12-30T04:39:17.054Z,-1.34
2016-12-30T04:39:57.589Z,-1.43
2016-12-30T04:40:38.149Z,-1.38
2016-12-30T04:41:18.626Z,-1.38
2016-12-30T04:41:59.146Z,-1.38
2016-12-30T04:42:39.668Z,-1.38
2016-12-30T04:43:20.216Z,-1.48
2016-12-30T04:44:00.729Z,-1.38
2016-12-30T04:44:41.252Z,-1.38
2016-12-30T04:45:21.770Z,-1.52
2016-12-30T04:46:02.284Z,-1.51
2016-12-30T04:46:42.815Z,-1.38
2016-12-30T04:47:23.344Z,-1.38
2016-12-30T04:48:03.898Z,-1.41
2016-12-30T04:48:44.425Z,-1.35
2016-12-30T04:49:24.947Z,-1.37
2016-12-30T04:50:05.464Z,-1.34
2016-12-30T04:50:45.991Z,-1.4
2016-12-30T04:51:26.530Z,-1.49
2016-12-30T04:52:07.053Z,-1.48
2016-12-30T04:52:47.583Z,-1.51
2016-12-30T04:53:28.114Z,-1.48
2016-12-30T04:54:08.635Z,-1.51
2016-12-30T04:54:49.183Z,-1.49
2016-12-30T04:55:29.677Z,-1.51
2016-12-30T04:56:10.169Z,-1.46
2016-12-30T04:56:50.696Z,-1.43
2016-12-30T04:57:31.183Z,-1.46
2016-12-30T04:58:11.723Z,-1.49
2016-12-30T04:58:52.233Z,-1.48
2016-12-30T04:59:32.768Z,-1.45
2016-12-30T05:00:13.277Z,-1.48
2016-12-30T05:00:53.806Z,-1.43
2016-12-30T05:01:34.333Z,-1.58
2016-12-30T05:02:14.865Z,-1.49
2016-12-30T05:02:55.375Z,-1.48
2016-12-30T05:03:35.880Z,-1.56
2016-12-30T05:04:16.378Z,-1.52
2016-12-30T05:04:56.904Z,-1.52
2016-12-30T05:05:37.415Z,-1.45
2016-12-30T05:06:17.939Z,-1.45
2016-12-30T05:06:58.456Z,-1.52
2016-12-30T05:07:38.942Z,-1.46
2016-12-30T05:08:19.477Z,-1.46
2016-12-30T05:09:00.016Z,-1.48
2016-12-30T05:09:40.550Z,-1.48
2016-12-30T05:10:22.952Z,-1.48
2016-12-30T05:11:03.474Z,-1.45
2016-12-30T05:11:44.631Z,-1.4
2016-12-30T05:12:25.138Z,-1.48
2016-12-30T05:13:05.661Z,-1.35
2016-12-30T05:13:46.162Z,-1.46
2016-12-30T05:14:26.690Z,-1.4
2016-12-30T05:15:07.215Z,-1.4
2016-12-30T05:15:47.747Z,-1.43
2016-12-30T05:16:28.278Z,-1.41
2016-12-30T05:17:08.787Z,-1.38
2016-12-30T05:17:49.315Z,-1.35
2016-12-30T05:18:29.840Z,-1.34
2016-12-30T05:19:10.355Z,-1.38
2016-12-30T05:19:50.885Z,-1.4
2016-12-30T05:20:31.400Z,-1.43
2016-12-30T05:21:11.922Z,-1.35
2016-12-30T05:21:52.424Z,-1.43
2016-12-30T05:22:32.963Z,-1.43
2016-12-30T05:23:13.490Z,-1.41
2016-12-30T05:23:54.016Z,-1.4
2016-12-30T05:24:34.539Z,-1.33
2016-12-30T05:25:15.069Z,-1.37
2016-12-30T05:25:55.592Z,-1.49
2016-12-30T05:26:36.114Z,-1.4
2016-12-30T05:27:16.652Z,-1.37
2016-12-30T05:27:57.173Z,-1.54
2016-12-30T05:28:37.693Z,-1.48
2016-12-30T05:29:18.232Z,-1.52
2016-12-30T05:29:58.742Z,-1.54
2016-12-30T05:30:39.275Z,-1.52
2016-12-30T05:31:19.799Z,-1.37
2016-12-30T05:32:00.369Z,-1.51
2016-12-30T05:32:40.900Z,-1.37
2016-12-30T05:33:21.427Z,-1.35
2016-12-30T05:34:01.944Z,-1.37
2016-12-30T05:34:42.477Z,-1.4
2016-12-30T05:35:23.008Z,-1.41
2016-12-30T05:36:03.540Z,-1.35
2016-12-30T05:36:44.063Z,-1.4
2016-12-30T05:37:24.600Z,-1.38
2016-12-30T05:38:05.121Z,-1.38
2016-12-30T05:38:45.652Z,-1.34
2016-12-30T05:39:26.175Z,-1.38
2016-12-30T05:40:06.710Z,-1.38
2016-12-30T05:40:47.243Z,-1.38
2016-12-30T05:41:27.775Z,-1.4
2016-12-30T05:42:08.312Z,-1.38
2016-12-30T05:42:48.851Z,-1.33
2016-12-30T05:43:29.383Z,-1.4
2016-12-30T05:44:09.901Z,-1.37
2016-12-30T05:44:50.441Z,-1.41
2016-12-30T05:45:30.977Z,-1.4
2016-12-30T05:46:11.496Z,-1.31
2016-12-30T05:46:52.021Z,-1.33
2016-12-30T05:47:32.558Z,-1.38
2016-12-30T05:48:13.086Z,-1.31
2016-12-30T05:48:53.621Z,-1.33
2016-12-30T05:49:34.158Z,-1.34
2016-12-30T05:50:14.688Z,-1.2
2016-12-30T05:50:55.214Z,-0.95
2016-12-30T05:51:35.742Z,-0.76
2016-12-30T05:52:16.280Z,-0.65
2016-12-30T05:52:56.796Z,-0.62
2016-12-30T05:53:37.352Z,-0.52
2016-12-30T05:54:17.882Z,-0.57
2016-12-30T05:54:58.411Z,-0.54
2016-12-30T05:55:38.928Z,-0.55
2016-12-30T05:56:19.445Z,-0.67
2016-12-30T05:56:59.968Z,-0.65
2016-12-30T05:57:40.490Z,-0.57
2016-12-30T05:58:21.036Z,-0.6
2016-12-30T05:59:01.544Z,-0.6
2016-12-30T05:59:42.079Z,-0.62
2016-12-30T06:00:22.626Z,-0.69
2016-12-30T06:01:03.156Z,-0.65
2016-12-30T06:01:43.685Z,-0.79
2016-12-30T06:02:24.192Z,-0.73
2016-12-30T06:03:04.708Z,-0.76
2016-12-30T06:03:45.236Z,-0.79
2016-12-30T06:04:25.766Z,-0.69
2016-12-30T06:05:06.296Z,-0.78
2016-12-30T06:05:46.821Z,-0.7
2016-12-30T06:06:27.348Z,-0.75
2016-12-30T06:07:07.889Z,-0.75
2016-12-30T06:07:48.402Z,-0.72
2016-12-30T06:08:28.941Z,-0.78
2016-12-30T06:09:09.472Z,-0.78
2016-12-30T06:09:49.999Z,-0.73
2016-12-30T06:10:30.526Z,-0.76
2016-12-30T06:11:11.040Z,-0.79
2016-12-30T06:11:51.574Z,-0.78
2016-12-30T06:12:32.123Z,-0.83
2016-12-30T06:13:12.642Z,-0.85
2016-12-30T06:13:53.181Z,-0.79
2016-12-30T06:14:33.704Z,-0.98
2016-12-30T06:15:14.255Z,-0.94
2016-12-30T06:15:54.776Z,-0.85
2016-12-30T06:16:35.281Z,-1.01
2016-12-30T06:17:15.793Z,-1.01
2016-12-30T06:17:56.373Z,-0.97
2016-12-30T06:18:36.897Z,-0.97
2016-12-30T06:19:17.428Z,-1.04
2016-12-30T06:19:57.975Z,-1.1
2016-12-30T06:20:38.497Z,-1.17
2016-12-30T06:21:19.024Z,-1.07
2016-12-30T06:21:59.554Z,-1.17
2016-12-30T06:22:40.089Z,-1.13
2016-12-30T06:23:20.630Z,-1.12
2016-12-30T06:24:01.148Z,-1.15
2016-12-30T06:24:41.662Z,-1.23
2016-12-30T06:25:22.190Z,-1.22
2016-12-30T06:26:02.733Z,-1.2
2016-12-30T06:26:43.256Z,-1.23
2016-12-30T06:27:23.777Z,-1.22
2016-12-30T06:28:04.313Z,-1.3
2016-12-30T06:28:44.848Z,-1.27
2016-12-30T06:29:25.373Z,-1.22
2016-12-30T06:30:05.911Z,-1.23
2016-12-30T06:30:46.427Z,-1.28
2016-12-30T06:31:26.944Z,-1.19
2016-12-30T06:32:07.470Z,-1.2
2016-12-30T06:32:47.997Z,-1.28
2016-12-30T06:33:28.528Z,-1.27
2016-12-30T06:34:09.048Z,-1.33
2016-12-30T06:34:49.574Z,-1.25
2016-12-30T06:35:30.092Z,-1.28
2016-12-30T06:36:10.630Z,-1.3
2016-12-30T06:36:51.171Z,-1.3
2016-12-30T06:37:31.695Z,-1.3
2016-12-30T06:38:12.225Z,-1.28
2016-12-30T06:38:52.813Z,-1.19
2016-12-30T06:39:33.328Z,-1.22
2016-12-30T06:40:13.848Z,-1.27
2016-12-30T06:40:54.355Z,-1.2
2016-12-30T06:41:34.890Z,-1.25
2016-12-30T06:42:15.418Z,-1.22
2016-12-30T06:42:55.914Z,-1.23
2016-12-30T06:43:36.429Z,-1.27
2016-12-30T06:44:16.944Z,-1.17
2016-12-30T06:44:57.465Z,-1.25
2016-12-30T06:45:37.985Z,-1.25
2016-12-30T06:46:18.514Z,-1.2
2016-12-30T06:46:59.025Z,-1.22
2016-12-30T06:47:39.573Z,-1.22
2016-12-30T06:48:20.089Z,-1.22
2016-12-30T06:49:00.621Z,-1.3
2016-12-30T06:49:41.152Z,-1.22
2016-12-30T06:50:21.678Z,-1.25
2016-12-30T06:51:02.203Z,-1.25
2016-12-30T06:51:42.736Z,-1.27
2016-12-30T06:52:23.267Z,-1.19
2016-12-30T06:53:03.789Z,-1.28
2016-12-30T06:53:44.318Z,-1.2
2016-12-30T06:54:24.842Z,-1.27
2016-12-30T06:55:05.370Z,-1.22
2016-12-30T06:55:45.898Z,-1.17
2016-12-30T06:56:26.402Z,-1.23
2016-12-30T06:57:06.934Z,-1.34
2016-12-30T06:57:47.462Z,-1.2
2016-12-30T06:58:27.990Z,-1.23
2016-12-30T06:59:08.523Z,-1.2
2016-12-30T06:59:49.047Z,-1.3
2016-12-30T07:00:29.579Z,-1.27
2016-12-30T07:01:10.118Z,-1.28
2016-12-30T07:01:50.644Z,-1.17
2016-12-30T07:02:31.165Z,-1.25
2016-12-30T07:03:11.700Z,-1.27
2016-12-30T07:03:52.207Z,-1.27
2016-12-30T07:04:32.747Z,-1.2
2016-12-30T07:05:13.250Z,-1.33
2016-12-30T07:05:53.773Z,-1.2
2016-12-30T07:06:34.292Z,-1.23
2016-12-30T07:07:14.814Z,-1.34
2016-12-30T07:07:55.338Z,-1.27
2016-12-30T07:08:35.869Z,-1.3
2016-12-30T07:09:16.410Z,-1.27
2016-12-30T07:09:56.930Z,-1.33
2016-12-30T07:10:37.443Z,-1.27
2016-12-30T07:11:17.974Z,-1.25
2016-12-30T07:11:58.473Z,-1.27
2016-12-30T07:12:39.001Z,-1.33
2016-12-30T07:13:19.532Z,-1.33
2016-12-30T07:14:00.070Z,-1.31
2016-12-30T07:14:40.581Z,-1.38
2016-12-30T07:15:21.112Z,-1.33
2016-12-30T07:16:01.641Z,-1.35
2016-12-30T07:16:42.170Z,-1.35
2016-12-30T07:17:22.698Z,-1.38
2016-12-30T07:18:03.220Z,-1.37
2016-12-30T07:18:43.756Z,-1.4
2016-12-30T07:19:24.281Z,-1.34
2016-12-30T07:20:04.826Z,-1.37
2016-12-30T07:20:45.348Z,-1.38
2016-12-30T07:21:25.871Z,-1.4
2016-12-30T07:22:06.415Z,-1.35
2016-12-30T07:22:46.945Z,-1.4
2016-12-30T07:23:27.471Z,-1.49
2016-12-30T07:24:08.003Z,-1.52
2016-12-30T07:24:48.535Z,-1.43
2016-12-30T07:25:29.062Z,-1.48
2016-12-30T07:26:09.618Z,-1.54
2016-12-30T07:26:50.155Z,-1.51
2016-12-30T07:27:30.689Z,-1.43
2016-12-30T07:28:11.223Z,-1.55
2016-12-30T07:28:51.737Z,-1.4
2016-12-30T07:29:32.250Z,-1.41
2016-12-30T07:30:12.782Z,-1.38
2016-12-30T07:30:53.291Z,-1.38
2016-12-30T07:31:33.811Z,-1.48
2016-12-30T07:32:14.335Z,-1.38
2016-12-30T07:32:54.862Z,-1.35
2016-12-30T07:33:35.389Z,-1.46
2016-12-30T07:34:15.912Z,-1.41
2016-12-30T07:34:56.439Z,-1.38
2016-12-30T07:35:36.962Z,-1.4
2016-12-30T07:36:17.489Z,-1.35
2016-12-30T07:36:58.016Z,-1.38
2016-12-30T07:37:38.541Z,-1.41
2016-12-30T07:38:19.079Z,-1.38
2016-12-30T07:38:59.611Z,-1.35
2016-12-30T07:39:40.150Z,-1.38
2016-12-30T07:40:20.680Z,-1.43
2016-12-30T07:41:01.209Z,-1.43
2016-12-30T07:41:41.741Z,-1.3
2016-12-30T07:42:22.271Z,-1.34
2016-12-30T07:43:02.794Z,-1.37
2016-12-30T07:43:43.317Z,-1.31
2016-12-30T07:44:23.846Z,-1.3
2016-12-30T07:45:04.386Z,-1.27
2016-12-30T07:45:44.910Z,-1.23
2016-12-30T07:46:25.428Z,-1.33
2016-12-30T07:47:05.956Z,-1.28
2016-12-30T07:47:46.474Z,-1.33
2016-12-30T07:48:27.011Z,-1.22
2016-12-30T07:49:07.539Z,-1.25
2016-12-30T07:49:48.058Z,-1.25
2016-12-30T07:50:28.571Z,-1.28
2016-12-30T07:51:09.106Z,-1.27
2016-12-30T07:51:49.624Z,-1.33
2016-12-30T07:52:30.159Z,-1.27
2016-12-30T07:53:10.688Z,-1.2
2016-12-30T07:53:51.217Z,-1.23
2016-12-30T07:54:31.728Z,-1.23
2016-12-30T07:55:12.282Z,-1.28
2016-12-30T07:55:52.816Z,-1.22
2016-12-30T07:56:33.319Z,-1.22
2016-12-30T07:57:13.845Z,-1.16
2016-12-30T07:57:54.362Z,-1.27
2016-12-30T07:58:34.894Z,-1.2
2016-12-30T07:59:15.427Z,-1.25
2016-12-30T07:59:55.951Z,-1.2
2016-12-30T08:00:36.454Z,-1.19
2016-12-30T08:01:16.976Z,-1.16
2016-12-30T08:01:57.504Z,-1.25
2016-12-30T08:02:38.090Z,-1.2
2016-12-30T08:03:18.610Z,-1.13
2016-12-30T08:03:59.114Z,-1.2
2016-12-30T08:04:39.629Z,-1.13
2016-12-30T08:05:20.153Z,-1.13
2016-12-30T08:06:00.686Z,-1.13
2016-12-30T08:06:41.236Z,-1.17
2016-12-30T08:07:21.764Z,-1.19
2016-12-30T08:08:02.316Z,-1.13
2016-12-30T08:08:42.845Z,-1.23
2016-12-30T08:09:23.359Z,-1.19
2016-12-30T08:10:03.891Z,-1.16
2016-12-30T08:10:44.444Z,-1.15
2016-12-30T08:11:24.935Z,-1.17
2016-12-30T08:12:05.467Z,-1.15
2016-12-30T08:12:45.967Z,-1.23
2016-12-30T08:13:26.445Z,-1.05
2016-12-30T08:14:06.980Z,-1.22
2016-12-30T08:14:47.496Z,-1.12
2016-12-30T08:15:28.029Z,-1.22
2016-12-30T08:16:08.557Z,-1.12
2016-12-30T08:16:49.131Z,-1.15
2016-12-30T08:17:29.656Z,-1.04
2016-12-30T08:18:10.185Z,-1.1
2016-12-30T08:18:50.940Z,-1.17
2016-12-30T08:19:31.403Z,-1.17
2016-12-30T08:20:11.953Z,-1.19
2016-12-30T08:20:52.435Z,-1.15
2016-12-30T08:21:32.953Z,-1.17
2016-12-30T08:22:13.495Z,-1.2
2016-12-30T08:22:54.026Z,-1.1
2016-12-30T08:23:34.550Z,-1.2
2016-12-30T08:24:15.084Z,-1.07
2016-12-30T08:24:55.591Z,-1.15
2016-12-30T08:25:36.109Z,-1.17
2016-12-30T08:26:16.636Z,-1.16
2016-12-30T08:26:57.153Z,-1.09
2016-12-30T08:27:37.704Z,-1.07
2016-12-30T08:28:18.218Z,-1.13
2016-12-30T08:28:58.748Z,-1.09
2016-12-30T08:29:39.242Z,-1.07
2016-12-30T08:30:19.768Z,-1.13
2016-12-30T08:31:00.306Z,-1.07
2016-12-30T08:31:40.840Z,-1.1
2016-12-30T08:32:21.431Z,-1.07
2016-12-30T08:33:01.950Z,-1.1
2016-12-30T08:33:42.481Z,-1.09
2016-12-30T08:34:23.005Z,-1.07
2016-12-30T08:35:03.537Z,-1.12
2016-12-30T08:35:44.110Z,-1.09
2016-12-30T08:36:24.553Z,-0.99
2016-12-30T08:37:05.044Z,-1.02
2016-12-30T08:37:45.554Z,-0.97
2016-12-30T08:38:26.039Z,-0.95
2016-12-30T08:39:06.558Z,-0.92
2016-12-30T08:39:47.042Z,-0.99
2016-12-30T08:40:27.587Z,-0.92
2016-12-30T08:41:08.171Z,-0.95
2016-12-30T08:41:48.705Z,-0.95
2016-12-30T08:42:29.200Z,-0.91
2016-12-30T08:43:09.737Z,-0.98
2016-12-30T08:43:50.228Z,-0.92
2016-12-30T08:44:30.715Z,-1.02
2016-12-30T08:45:11.956Z,-1.02
2016-12-30T08:45:52.479Z,-0.98
2016-12-30T08:46:32.990Z,-0.94
2016-12-30T08:47:13.529Z,-0.97
2016-12-30T08:47:54.057Z,-0.97
2016-12-30T08:48:34.586Z,-0.95
2016-12-30T08:49:15.091Z,-0.94
2016-12-30T08:49:55.602Z,-0.99
2016-12-30T08:50:36.117Z,-0.86
2016-12-30T08:51:16.629Z,-0.94
2016-12-30T08:51:57.148Z,-0.97
2016-12-30T08:52:37.723Z,-0.94
2016-12-30T08:53:18.252Z,-0.94
2016-12-30T08:53:58.774Z,-0.97
2016-12-30T08:54:39.313Z,-0.94
2016-12-30T08:55:19.805Z,-0.94
2016-12-30T08:56:00.323Z,-0.95
2016-12-30T08:56:40.819Z,-0.91
2016-12-30T08:57:21.328Z,-0.94
2016-12-30T08:58:01.841Z,-0.95
2016-12-30T08:58:42.356Z,-0.82
2016-12-30T08:59:22.839Z,-0.85
2016-12-30T09:00:03.352Z,-0.85
2016-12-30T09:00:43.866Z,-0.85
2016-12-30T09:01:24.378Z,-0.86
2016-12-30T09:02:04.895Z,-0.78
2016-12-30T09:02:45.439Z,-0.7
2016-12-30T09:03:25.969Z,-0.85
2016-12-30T09:04:06.464Z,-0.79
2016-12-30T09:04:46.986Z,-0.73